Airports Italy Turin Airport

Turin Airport (LIMF / TRN)

Facts about Turin Airport

Name Turin Airport
City Torino
Country Italy
ICAO code LIMF
IATA code TRN
Elevation 301.4472 meters (989 feet)

Weather

METAR

Metar data retrieved Saturday, 20 July 2024 at 00:55 UTC (11 minutes ago)

LIMF 200020Z 36006KT 9999 FEW040 21/17 Q1015

Live traffic

Navigraph Charts (account required)